Nearby METAR Reports

 

EGWC - Cosford Raf, United Kingdom
Distance from station: SSW 22km
Updated: 17/09/2019 15:50
NOT Current
Few Clouds
Few Clouds
 Wind from N
Wind: N 10 mph , 17 km/h
Temperature: 16°C
Dew Point: 6°C
Humidity: 52%
Barometer: 1027 hPa
Clouds: Few Clouds
Visibility: 6 miles , 10 km
Cloud details: Few Clouds 1067 m
2019/09/17 14:50 EGWC 171450Z 36009KT 9999 FEW035 16/06 Q1027 RMK BLU
EGOS - Shawbury Raf, United Kingdom
Distance from station: W 37km
Updated: 20/09/2019 22:50
Clear
Clear
 Wind from ESE
Wind: ESE 10 mph , 17 km/h
Temperature: 14°C
Dew Point: 9°C
Humidity: 72%
Barometer: 1019 hPa
Clouds: Clear
Visibility: 6 miles , 10 km
2019/09/20 21:50 EGOS 202150Z AUTO 11009KT 9999 NCD 14/09 Q1019
 
EGBB - Birmingham Airpo, United Kingdom
Distance from station: SE 44km
Updated: 20/09/2019 23:20
Clear
Clear
 Wind from SE
Wind: SE 9 mph , 15 km/h
Temperature: 13°C
Dew Point: 7°C
Humidity: 67%
Barometer: 1019 hPa
Summary: Clear
Visibility: greater than 7 miles , 10 km
2019/09/20 22:20 EGBB 202220Z 13008KT CAVOK 13/07 Q1019
EGNX - East Midlands, United Kingdom
Distance from station: E 54km
Updated: 20/09/2019 23:20
Clear
Clear
 Wind from E
Wind: E 10 mph , 17 km/h
Temperature: 12°C
Dew Point: 9°C
Humidity: 82%
Barometer: 1020 hPa
Summary: Clear
Visibility: greater than 7 miles , 10 km
2019/09/20 22:20 EGNX 202220Z 09009KT CAVOK 12/09 Q1020
 
EGCC - Manchester Intl, United Kingdom
Distance from station: N 63km
Updated: 20/09/2019 23:20
Clear
Clear
 Wind from varies
Wind: varies 3 mph , 6 km/h
Temperature: 15°C
Dew Point: 8°C
Humidity: 63%
Barometer: 1019 hPa
Clouds: Clear
Visibility: 6 miles , 10 km
2019/09/20 22:20 EGCC 202220Z AUTO VRB03KT 9999 NCD 15/08 Q1019 NOSIG
EGBE - Coventry Airport, United Kingdom
Distance from station: SE 65km
Updated: 18/07/2017 14:50
NOT Current
Clear
Clear
 Wind from E
Wind: E 16 mph , 26 km/h
Temperature: 27°C
Heat Index: 27°C
Dew Point: 14°C
Humidity: 45%
Barometer: 1015 hPa
Summary: Clear
Visibility: greater than 7 miles , 10 km
2017/07/18 13:50 EGBE 181350Z 10014KT 060V120 CAVOK 27/14 Q1015
 
EGNR - Hawarden (aut), United Kingdom
Distance from station: NW 70km
Updated: 20/09/2019 20:50
NOT Current
Clear
Clear
 Wind from ESE
Wind: ESE 8 mph , 13 km/h
Temperature: 16°C
Dew Point: 11°C
Humidity: 72%
Barometer: 1019 hPa
Summary: Clear
Visibility: greater than 7 miles , 10 km
2019/09/20 19:50 EGNR 201950Z 12007KT CAVOK 16/11 Q1019
EGGP - Liverpool Airpor, United Kingdom
Distance from station: NW 76km
Updated: 20/09/2019 23:20
Clear
Clear
 Wind from ESE
Wind: ESE 13 mph , 20 km/h
Temperature: 15°C
Dew Point: 12°C
Humidity: 82%
Barometer: 1018 hPa
Summary: Clear
Visibility: greater than 7 miles , 10 km
2019/09/20 22:20 EGGP 202220Z 12011KT CAVOK 15/12 Q1018